createdAt,value
2023-04-27T00:01:06.493Z,7.70
2023-04-27T00:11:08.193Z,7.70
2023-04-27T00:21:10.942Z,7.50
2023-04-27T00:31:12.629Z,7.50
2023-04-27T00:41:14.229Z,7.60
2023-04-27T00:51:16.022Z,7.60
2023-04-27T01:11:22.353Z,7.60
2023-04-27T01:21:24.340Z,7.50
2023-04-27T01:31:26.178Z,7.50
2023-04-27T01:41:27.834Z,7.40
2023-04-27T01:51:29.437Z,7.30
2023-04-27T02:01:31.436Z,7.30
2023-04-27T02:11:33.155Z,7.30
2023-04-27T02:21:34.791Z,7.30
2023-04-27T02:31:36.445Z,7.10
2023-04-27T02:41:38.080Z,7.10
2023-04-27T02:51:39.691Z,6.80
2023-04-27T03:01:41.424Z,6.70
2023-04-27T03:11:43.244Z,6.80
2023-04-27T03:21:44.877Z,6.90
2023-04-27T03:31:46.575Z,6.90
2023-04-27T03:41:48.252Z,7.00
2023-04-27T03:51:49.861Z,7.00
2023-04-27T04:01:51.844Z,6.80
2023-04-27T04:11:53.607Z,6.90
2023-04-27T04:31:58.980Z,6.80
2023-04-27T04:42:00.609Z,6.90
2023-04-27T04:52:04.109Z,6.90
2023-04-27T05:02:05.745Z,7.10
2023-04-27T05:30:29.021Z,7.60
2023-04-27T05:40:30.832Z,7.70
2023-04-27T05:50:32.445Z,8.00
2023-04-27T06:00:34.090Z,8.20
2023-04-27T06:10:35.812Z,8.40
2023-04-27T06:20:37.438Z,8.60
2023-04-27T06:30:39.765Z,8.70
2023-04-27T06:40:41.839Z,8.80
2023-04-27T06:50:44.233Z,8.90
2023-04-27T07:00:46.114Z,9.10
2023-04-27T07:10:48.007Z,9.60
2023-04-27T07:20:49.660Z,9.60
2023-04-27T07:30:51.881Z,9.80
2023-04-27T07:40:54.536Z,10.40
2023-04-27T07:50:56.256Z,10.60
2023-04-27T08:00:57.887Z,11.10
2023-04-27T08:10:59.545Z,11.70
2023-04-27T08:21:01.251Z,12.40
2023-04-27T08:31:03.301Z,12.70
2023-04-27T08:41:18.332Z,12.70
2023-04-27T08:51:24.217Z,13.20
2023-04-27T09:01:27.430Z,13.20
2023-04-27T09:11:37.996Z,13.30
2023-04-27T09:21:39.654Z,13.50
2023-04-27T09:31:41.982Z,13.60
2023-04-27T09:41:43.760Z,13.70
2023-04-27T09:51:45.397Z,13.90
2023-04-27T10:52:14.636Z,14.30
2023-04-27T11:02:16.763Z,15.20
2023-04-27T11:12:18.857Z,15.40
2023-04-27T11:22:20.662Z,16.00
2023-04-27T11:32:23.583Z,16.10
2023-04-27T11:42:28.824Z,16.80
2023-04-27T11:52:36.252Z,16.90
2023-04-27T12:02:38.707Z,17.60
2023-04-27T12:12:41.073Z,17.70
2023-04-27T12:22:42.739Z,18.10
2023-04-27T12:32:44.692Z,18.10
2023-04-27T12:42:46.455Z,18.30
2023-04-27T12:52:48.228Z,18.10
2023-04-27T13:02:51.688Z,18.60
2023-04-27T13:12:54.653Z,18.80
2023-04-27T13:22:56.353Z,18.90
2023-04-27T13:33:07.179Z,18.90
2023-04-27T13:43:12.370Z,18.90
2023-04-27T13:53:16.664Z,19.10
2023-04-27T14:03:18.979Z,20.00
2023-04-27T14:13:20.991Z,19.30
2023-04-27T14:23:22.655Z,19.50
2023-04-27T14:33:24.367Z,20.80
2023-04-27T14:43:26.823Z,21.60
2023-04-27T14:53:28.495Z,26.00
2023-04-27T15:03:33.506Z,23.30
2023-04-27T15:13:35.666Z,23.20
2023-04-27T15:23:37.443Z,23.10
2023-04-27T15:33:39.076Z,21.70
2023-04-27T15:43:40.703Z,20.80
2023-04-27T15:53:42.372Z,20.10
2023-04-27T16:03:44.057Z,19.60
2023-04-27T16:13:45.926Z,22.90
2023-04-27T16:23:47.572Z,23.80
2023-04-27T16:33:49.287Z,22.00
2023-04-27T16:43:51.083Z,22.10
2023-04-27T16:53:52.794Z,23.60
2023-04-27T17:03:54.619Z,20.90
2023-04-27T17:13:56.334Z,20.90
2023-04-27T17:23:58.044Z,20.40
2023-04-27T17:33:59.824Z,20.10
2023-04-27T17:44:01.591Z,19.30
2023-04-27T17:54:03.246Z,18.90
2023-04-27T18:04:07.075Z,18.60
2023-04-27T18:14:08.965Z,18.00
2023-04-27T18:24:10.704Z,17.40
2023-04-27T18:34:12.375Z,16.90
2023-04-27T18:44:15.418Z,16.50
2023-04-27T18:54:17.331Z,16.10
2023-04-27T19:04:19.055Z,15.70
2023-04-27T19:14:20.905Z,15.30
2023-04-27T19:24:22.584Z,15.20
2023-04-27T19:34:24.281Z,15.00
2023-04-27T19:44:25.958Z,14.90
2023-04-27T19:54:30.006Z,14.60
2023-04-27T20:04:32.837Z,14.50
2023-04-27T20:14:35.277Z,14.30
